createdAt,value
2019-05-09T00:01:24.210Z,4.70
2019-05-09T00:03:25.673Z,5.40
2019-05-09T00:05:26.936Z,5.50
2019-05-09T00:07:28.208Z,4.20
2019-05-09T00:09:29.471Z,4.12
2019-05-09T00:11:30.758Z,5.28
2019-05-09T00:13:34.244Z,4.03
2019-05-09T00:15:35.673Z,5.10
2019-05-09T00:17:37.291Z,6.65
2019-05-09T00:19:38.558Z,8.58
2019-05-09T00:21:54.081Z,10.50
2019-05-09T00:23:55.496Z,8.88
2019-05-09T00:25:56.945Z,12.15
2019-05-09T00:27:59.174Z,11.18
2019-05-09T00:30:00.838Z,10.60
2019-05-09T00:34:23.428Z,7.85
2019-05-09T00:36:24.827Z,8.03
2019-05-09T00:38:36.809Z,6.78
2019-05-09T00:40:52.362Z,6.75
2019-05-09T00:42:41.329Z,5.65
2019-05-09T00:44:53.734Z,7.55
2019-05-09T00:47:04.218Z,7.05
2019-05-09T00:49:07.581Z,10.00
2019-05-09T00:51:08.849Z,7.50
2019-05-09T00:53:10.128Z,9.10
2019-05-09T00:55:13.208Z,12.05
2019-05-09T00:59:34.989Z,15.68
2019-05-09T01:01:36.254Z,13.00
2019-05-09T01:03:37.529Z,18.75
2019-05-09T01:05:38.938Z,19.12
2019-05-09T01:07:40.244Z,18.10
2019-05-09T01:09:43.866Z,18.80
2019-05-09T01:11:45.101Z,21.27
2019-05-09T01:15:47.790Z,21.77
2019-05-09T01:17:49.062Z,21.93
2019-05-09T01:19:53.861Z,20.55
2019-05-09T01:21:56.477Z,22.52
2019-05-09T01:23:58.087Z,17.92
2019-05-09T01:25:59.839Z,21.30
2019-05-09T01:28:03.141Z,19.02
2019-05-09T01:30:04.907Z,22.58
2019-05-09T01:32:08.690Z,20.27
2019-05-09T01:34:15.169Z,21.30
2019-05-09T01:36:16.453Z,18.62
2019-05-09T01:38:18.753Z,21.02
2019-05-09T01:40:20.026Z,21.85
2019-05-09T01:42:23.185Z,20.30
2019-05-09T01:44:24.472Z,17.42
2019-05-09T01:46:25.845Z,18.80
2019-05-09T01:48:27.117Z,19.27
2019-05-09T01:50:28.426Z,23.73
2019-05-09T01:52:30.110Z,23.77
2019-05-09T01:56:34.440Z,22.35
2019-05-09T01:58:35.985Z,24.18
2019-05-09T02:00:37.251Z,25.23
2019-05-09T02:02:38.508Z,25.62
2019-05-09T02:04:43.856Z,24.25
2019-05-09T02:06:44.954Z,24.55
2019-05-09T02:08:46.303Z,24.67
2019-05-09T02:10:48.957Z,24.40
2019-05-09T02:12:50.252Z,23.42
2019-05-09T02:15:00.133Z,23.40
2019-05-09T02:17:19.818Z,25.15
2019-05-09T02:19:25.606Z,21.82
2019-05-09T02:21:26.862Z,22.30
2019-05-09T02:23:28.270Z,23.90
2019-05-09T02:25:29.638Z,23.87
2019-05-09T02:27:33.244Z,23.20
2019-05-09T02:29:34.761Z,23.12
2019-05-09T02:31:37.112Z,27.55
2019-05-09T02:33:39.005Z,27.15
2019-05-09T02:35:51.734Z,21.65
2019-05-09T02:37:44.966Z,22.32
2019-05-09T02:39:49.045Z,22.55
2019-05-09T02:42:01.029Z,26.87
2019-05-09T02:43:52.967Z,23.32
2019-05-09T02:45:59.683Z,21.97
2019-05-09T02:48:01.197Z,24.37
2019-05-09T02:50:08.572Z,18.70
2019-05-09T02:52:09.109Z,19.40
2019-05-09T02:56:12.007Z,20.83
2019-05-09T03:00:20.362Z,18.32
2019-05-09T03:02:23.695Z,16.42
2019-05-09T03:04:28.163Z,16.65
2019-05-09T03:06:28.672Z,15.40
2019-05-09T03:08:30.208Z,15.70
2019-05-09T03:10:31.483Z,15.83
2019-05-09T03:12:35.878Z,15.30
2019-05-09T03:14:38.487Z,17.50
2019-05-09T03:16:40.225Z,18.17
2019-05-09T03:18:41.842Z,13.90
2019-05-09T03:20:49.483Z,17.60
2019-05-09T03:22:50.971Z,15.50
2019-05-09T03:24:54.185Z,14.25
2019-05-09T03:27:03.432Z,10.55
2019-05-09T03:29:08.797Z,12.15
2019-05-09T03:31:14.306Z,12.35
2019-05-09T03:33:15.658Z,11.10
2019-05-09T03:35:17.375Z,9.95
2019-05-09T03:39:20.152Z,11.10
2019-05-09T03:41:21.826Z,11.97
2019-05-09T03:45:24.245Z,12.03
2019-05-09T03:47:27.663Z,12.00
2019-05-09T03:49:29.250Z,12.78
2019-05-09T03:51:30.793Z,10.85
2019-05-09T03:53:33.065Z,9.83
2019-05-09T03:55:35.238Z,9.25
2019-05-09T03:57:41.379Z,8.50
2019-05-09T03:59:42.929Z,10.63
2019-05-09T04:01:46.918Z,10.70
2019-05-09T04:03:48.191Z,7.53
2019-05-09T04:05:58.626Z,8.95
2019-05-09T04:07:54.821Z,8.70
2019-05-09T04:09:58.383Z,8.43
2019-05-09T04:12:00.290Z,7.62
2019-05-09T04:14:03.739Z,6.33
2019-05-09T04:16:07.509Z,6.75
2019-05-09T04:18:08.679Z,7.03
2019-05-09T04:20:11.556Z,7.15
2019-05-09T04:22:12.871Z,9.18
2019-05-09T04:24:14.142Z,8.90
2019-05-09T04:26:17.697Z,8.63
2019-05-09T04:28:19.125Z,8.53
2019-05-09T04:30:20.763Z,7.70
2019-05-09T04:34:23.685Z,6.37
2019-05-09T04:36:39.874Z,7.55
2019-05-09T04:38:41.934Z,5.37
2019-05-09T04:40:45.851Z,6.60
2019-05-09T04:42:47.620Z,8.13
2019-05-09T04:44:57.453Z,8.20
2019-05-09T04:46:59.093Z,5.28
2019-05-09T04:48:59.499Z,7.17
2019-05-09T04:51:03.193Z,8.05
2019-05-09T04:53:04.458Z,6.45
2019-05-09T04:55:07.864Z,9.13
2019-05-09T04:57:09.445Z,7.70
2019-05-09T04:59:10.791Z,8.60
2019-05-09T05:01:32.591Z,6.42
2019-05-09T05:03:34.362Z,9.80
2019-05-09T05:05:37.131Z,7.10
2019-05-09T05:07:38.909Z,8.98
2019-05-09T05:09:40.527Z,5.25
2019-05-09T05:13:43.323Z,5.90
2019-05-09T05:17:48.304Z,5.57
2019-05-09T05:19:52.169Z,6.00
2019-05-09T05:23:58.939Z,7.45
2019-05-09T05:26:00.507Z,7.70
2019-05-09T05:28:03.098Z,8.65
2019-05-09T05:32:08.598Z,7.53
2019-05-09T05:34:18.297Z,10.58
2019-05-09T05:36:21.331Z,7.42
2019-05-09T05:38:22.622Z,8.30
2019-05-09T05:40:23.925Z,9.53
2019-05-09T05:42:27.702Z,7.67
2019-05-09T05:44:28.698Z,7.92
2019-05-09T05:46:34.849Z,7.37
2019-05-09T05:48:38.415Z,7.80
2019-05-09T05:50:39.945Z,12.33
2019-05-09T05:52:41.254Z,9.00
2019-05-09T05:54:42.646Z,7.10
2019-05-09T05:56:44.319Z,7.85
2019-05-09T06:00:48.084Z,7.85
2019-05-09T06:02:50.001Z,7.47
2019-05-09T06:04:51.271Z,5.97
2019-05-09T06:06:52.543Z,7.60
2019-05-09T06:08:54.131Z,9.33
2019-05-09T06:10:57.489Z,8.68
2019-05-09T06:12:58.666Z,9.70
2019-05-09T06:14:59.929Z,6.70
2019-05-09T06:17:01.194Z,8.80
2019-05-09T06:19:02.564Z,5.28
2019-05-09T06:21:03.930Z,6.55
2019-05-09T06:23:05.206Z,6.58
2019-05-09T06:25:09.829Z,5.17
2019-05-09T06:27:11.854Z,7.80
2019-05-09T06:31:14.634Z,7.92
2019-05-09T06:33:18.015Z,7.53
2019-05-09T06:35:22.962Z,7.85
2019-05-09T06:41:28.624Z,5.67
2019-05-09T20:27:24.874Z,3.40
2019-05-09T20:29:45.150Z,2.72
2019-05-09T20:41:27.411Z,4.10
2019-05-09T21:32:48.955Z,4.70
2019-05-09T21:56:06.817Z,2.65
2019-05-09T21:58:26.658Z,2.00
2019-05-09T22:10:08.922Z,4.30
2019-05-09T22:12:28.960Z,4.67
2019-05-09T22:14:49.013Z,4.28
2019-05-09T22:17:13.756Z,3.67
2019-05-09T22:19:33.685Z,4.75
2019-05-09T22:21:53.863Z,3.85
2019-05-09T22:24:13.742Z,4.47
2019-05-09T22:26:33.599Z,3.92
2019-05-09T22:28:53.317Z,6.17
2019-05-09T22:31:13.388Z,5.80
2019-05-09T22:33:33.303Z,4.65
2019-05-09T22:35:53.476Z,4.30
2019-05-09T22:38:13.634Z,7.08
2019-05-09T22:40:33.825Z,4.95
2019-05-09T22:42:53.862Z,6.00
2019-05-09T22:45:14.097Z,7.05
2019-05-09T22:47:34.063Z,7.50
2019-05-09T22:49:54.361Z,10.88
2019-05-09T22:52:14.481Z,12.10
2019-05-09T22:54:34.621Z,12.05
2019-05-09T22:56:54.480Z,12.37
2019-05-09T22:59:14.722Z,13.03
2019-05-09T23:01:35.398Z,14.58
2019-05-09T23:03:55.642Z,16.05
2019-05-09T23:06:15.654Z,15.72
2019-05-09T23:08:35.545Z,17.27
2019-05-09T23:10:55.428Z,19.35
2019-05-09T23:13:16.262Z,18.35
2019-05-09T23:15:36.358Z,22.40
2019-05-09T23:17:56.341Z,22.05
2019-05-09T23:20:34.406Z,19.20
2019-05-09T23:22:54.157Z,20.77
2019-05-09T23:25:13.890Z,20.52
2019-05-09T23:27:33.642Z,22.30
2019-05-09T23:29:53.714Z,24.20
2019-05-09T23:32:18.287Z,22.07
2019-05-09T23:34:39.826Z,23.18
2019-05-09T23:37:00.135Z,30.65
2019-05-09T23:39:22.400Z,23.92
2019-05-09T23:44:02.808Z,27.55
2019-05-09T23:46:23.197Z,23.87
2019-05-09T23:48:43.159Z,24.98
2019-05-09T23:51:02.993Z,26.33
2019-05-09T23:53:31.001Z,29.87
2019-05-09T23:56:09.627Z,27.58
2019-05-09T23:58:48.064Z,31.60
